METAR Data
IDs: Format: Raw Decoded Include TAF

Data at: 2113 UTC 18 Apr 2021

LEVD 182100Z AUTO 23002KT CAVOK 10/02 Q1021